Time;durP1;ratioP1;P1;durP2;ratioP2;P2;SDS_P1;SDS_P2;PMS_P1;PMS_P2;Temp;Humidity;BMP_temperature;BMP_pressure;BME280_temperature;BME280_humidity;BME280_pressure;Samples;Min_cycle;Max_cycle;Signal;HPM_P1;HPM_P2
2022/07/30 00:01:34;;;;;;;7.43;2.20;;;16.60;89.80;;;;;;5013802;28;20484;-73
2022/07/30 00:04:03;;;;;;;9.95;2.38;;;16.50;90.00;;;;;;5015039;28;20049;-73
2022/07/30 00:06:31;;;;;;;10.27;2.53;;;16.40;90.00;;;;;;5014742;28;20038;-73
2022/07/30 00:08:59;;;;;;;;;;;16.40;90.20;;;;;;5014032;28;20046;-72
2022/07/30 00:11:26;;;;;;;8.57;2.13;;;16.30;90.60;;;;;;5014860;28;19955;-73
2022/07/30 00:13:54;;;;;;;;;;;16.30;90.20;;;;;;5015308;28;20049;-73
2022/07/30 00:16:22;;;;;;;8.88;2.05;;;16.20;91.00;;;;;;4980933;28;19921;-72
2022/07/30 00:18:50;;;;;;;6.78;2.45;;;16.20;90.40;;;;;;5014536;28;20057;-73
2022/07/30 00:21:18;;;;;;;8.32;1.88;;;16.10;90.50;;;;;;5013489;28;20054;-73
2022/07/30 00:24:07;;;;;;;9.50;2.30;;;16.10;90.60;;;;;;5015029;28;20377;-73
2022/07/30 00:26:35;;;;;;;5.88;2.22;;;16.10;90.70;;;;;;5014644;28;20042;-71
2022/07/30 00:29:03;;;;;;;6.55;2.35;;;16.10;90.70;;;;;;4996388;28;20050;-72
2022/07/30 00:31:31;;;;;;;8.25;2.60;;;16.10;90.90;;;;;;4981913;28;20050;-71
2022/07/30 00:33:59;;;;;;;8.10;2.00;;;16.10;90.90;;;;;;4981392;28;20065;-72
2022/07/30 00:36:27;;;;;;;6.75;2.17;;;16.10;90.90;;;;;;5001063;28;20488;-73
2022/07/30 00:38:55;;;;;;;8.30;2.70;;;16.10;91.00;;;;;;5001239;28;20048;-73
2022/07/30 00:41:22;;;;;;;9.50;2.58;;;16.10;91.00;;;;;;5000405;28;20057;-72
2022/07/30 00:43:50;;;;;;;8.57;2.42;;;16.10;90.90;;;;;;5001123;28;20046;-71
2022/07/30 00:46:18;;;;;;;5.43;1.95;;;16.10;91.00;;;;;;5001090;28;20464;-72
2022/07/30 00:48:46;;;;;;;11.32;2.10;;;16.10;91.00;;;;;;5016919;28;20062;-72
2022/07/30 00:51:13;;;;;;;6.20;2.15;;;16.10;91.00;;;;;;4996636;28;20500;-73
2022/07/30 00:53:41;;;;;;;6.85;2.28;;;16.20;91.10;;;;;;5038129;28;20045;-72
2022/07/30 00:56:09;;;;;;;6.75;2.30;;;16.20;91.00;;;;;;5035889;28;20376;-73
2022/07/30 00:58:36;;;;;;;9.75;2.25;;;16.20;91.00;;;;;;5036916;28;20046;-71
2022/07/30 01:01:04;;;;;;;7.18;2.28;;;16.20;91.00;;;;;;5036745;28;20045;-72
2022/07/30 01:03:32;;;;;;;10.70;2.70;;;16.20;91.00;;;;;;5037769;28;20052;-72
2022/07/30 01:05:59;;;;;;;5.47;2.30;;;16.20;91.00;;;;;;5036617;28;20376;-73
2022/07/30 01:08:27;;;;;;;11.25;2.60;;;16.20;91.10;;;;;;5035824;28;20468;-73
2022/07/30 01:10:54;;;;;;;7.65;2.10;;;16.20;91.10;;;;;;5036718;28;20052;-73
2022/07/30 01:13:22;;;;;;;11.82;2.40;;;16.20;91.10;;;;;;5036647;28;20480;-72
2022/07/30 01:15:50;;;;;;;7.45;2.55;;;16.20;91.20;;;;;;5036346;28;20499;-73
2022/07/30 01:18:18;;;;;;;8.68;2.60;;;16.10;91.20;;;;;;5037221;28;20045;-72
2022/07/30 01:20:55;;;;;;;;;;;16.10;91.20;;;;;;5035805;28;20369;-72
2022/07/30 01:23:34;;;;;;;13.43;3.00;;;16.00;91.70;;;;;;5037467;28;19921;-73
2022/07/30 01:26:09;;;;;;;9.35;2.22;;;16.00;91.30;;;;;;5036646;28;20042;-71
2022/07/30 01:28:45;;;;;;;11.80;2.53;;;16.00;91.30;;;;;;5035121;28;20057;-74
2022/07/30 01:31:13;;;;;;;8.70;2.33;;;16.00;91.40;;;;;;5036852;28;20052;-71
2022/07/30 01:33:45;;;;;;;7.60;2.40;;;15.90;91.40;;;;;;5036576;28;20045;-73
2022/07/30 01:36:15;;;;;;;8.38;2.13;;;15.90;91.50;;;;;;5018499;28;20476;-72
2022/07/30 01:38:45;;;;;;;7.55;2.20;;;15.90;91.40;;;;;;5036050;28;20571;-73
2022/07/30 01:41:14;;;;;;;12.23;2.25;;;15.90;91.40;;;;;;5034945;28;20057;-73
2022/07/30 01:43:44;;;;;;;5.82;2.15;;;15.90;91.40;;;;;;5037244;28;20052;-72
2022/07/30 01:46:15;;;;;;;7.65;2.17;;;15.90;91.40;;;;;;5019633;28;20053;-72
2022/07/30 01:48:46;;;;;;;8.73;2.45;;;15.80;91.40;;;;;;5034788;28;20041;-71
2022/07/30 01:51:17;;;;;;;6.55;2.38;;;15.80;91.50;;;;;;5035562;28;20049;-71
2022/07/30 01:53:50;;;;;;;9.98;2.38;;;15.80;91.60;;;;;;5035834;28;20049;-73
2022/07/30 01:56:22;;;;;;;7.90;2.33;;;15.70;91.60;;;;;;5034776;28;20452;-71
2022/07/30 01:58:54;;;;;;;5.43;2.47;;;15.70;91.70;;;;;;5035731;28;20042;-72
2022/07/30 02:01:26;;;;;;;8.63;3.10;;;15.70;91.70;;;;;;5034837;28;20404;-71
2022/07/30 02:04:01;;;;;;;8.07;3.00;;;15.70;91.80;;;;;;5019206;28;20064;-72
2022/07/30 02:06:43;;;;;;;7.20;3.13;;;15.70;91.80;;;;;;5036069;28;20049;-74
2022/07/30 02:09:16;;;;;;;7.90;2.70;;;15.70;92.00;;;;;;5034443;28;20048;-71
2022/07/30 02:14:45;;;;;;;7.53;2.78;;;15.70;91.80;;;;;;5035094;28;20060;-73
2022/07/30 02:17:19;;;;;;;9.05;2.40;;;15.70;91.80;;;;;;5035749;28;20041;-71
2022/07/30 02:19:51;;;;;;;9.18;2.17;;;15.70;91.80;;;;;;5035407;28;20216;-73
2022/07/30 02:22:21;;;;;;;11.13;2.60;;;15.70;91.80;;;;;;5034386;28;20041;-74
2022/07/30 02:24:52;;;;;;;6.28;2.13;;;15.70;91.90;;;;;;5035917;28;20048;-73
2022/07/30 02:27:32;;;;;;;6.43;2.30;;;15.70;91.90;;;;;;5034941;28;20057;-72
2022/07/30 02:30:02;;;;;;;10.30;2.63;;;15.60;92.00;;;;;;5035258;28;20056;-72
2022/07/30 02:32:36;;;;;;;8.23;2.25;;;15.60;91.90;;;;;;5035169;28;20050;-72
2022/07/30 02:35:10;;;;;;;6.72;2.28;;;15.60;91.90;;;;;;5034722;28;20049;-72
2022/07/30 02:37:42;;;;;;;12.68;2.47;;;15.60;91.90;;;;;;5035629;28;20045;-72
2022/07/30 02:40:16;;;;;;;8.95;2.63;;;15.50;91.90;;;;;;5018871;28;20052;-72
2022/07/30 02:42:48;;;;;;;8.38;2.53;;;15.50;92.00;;;;;;5034835;28;20045;-72
2022/07/30 02:45:21;;;;;;;5.85;2.42;;;15.50;92.10;;;;;;5035142;28;20057;-72
2022/07/30 02:47:54;;;;;;;8.05;2.50;;;15.40;92.00;;;;;;5033753;28;20109;-72
2022/07/30 02:50:23;;;;;;;6.35;2.28;;;15.40;92.00;;;;;;5035318;28;20049;-72
2022/07/30 02:52:53;;;;;;;7.95;2.40;;;15.40;92.10;;;;;;5034654;28;20056;-71
2022/07/30 02:55:23;;;;;;;6.07;2.33;;;15.30;92.10;;;;;;5033592;28;20042;-73
2022/07/30 02:57:53;;;;;;;6.03;2.50;;;15.30;92.20;;;;;;5034027;28;20052;-72
2022/07/30 03:00:23;;;;;;;9.52;2.80;;;15.20;92.30;;;;;;5034664;28;20045;-72
2022/07/30 03:02:54;;;;;;;9.35;2.42;;;15.20;92.30;;;;;;5033408;28;20057;-72
2022/07/30 03:05:25;;;;;;;8.95;2.35;;;15.20;92.40;;;;;;5035619;28;20041;-73
2022/07/30 03:07:56;;;;;;;5.72;2.30;;;15.20;92.40;;;;;;5033583;28;20045;-73
2022/07/30 03:10:26;;;;;;;8.15;2.30;;;15.10;92.40;;;;;;5034371;28;20480;-72
2022/07/30 03:12:55;;;;;;;8.55;2.28;;;15.10;92.40;;;;;;5034323;28;20045;-74
2022/07/30 03:15:23;;;;;;;7.63;2.33;;;15.00;92.50;;;;;;5033198;28;20049;-72
2022/07/30 03:17:52;;;;;;;;;;;15.00;92.60;;;;;;5018120;28;20054;-73
2022/07/30 03:20:29;;;;;;;7.00;2.35;;;14.90;93.10;;;;;;5034370;28;19921;-73
2022/07/30 03:22:59;;;;;;;7.00;2.67;;;14.90;92.80;;;;;;5034174;28;20045;-71
2022/07/30 03:25:31;;;;;;;6.50;2.50;;;14.90;92.80;;;;;;5034143;28;20053;-72
2022/07/30 03:28:02;;;;;;;8.40;2.50;;;14.90;93.00;;;;;;5032966;28;20053;-74
2022/07/30 03:30:32;;;;;;;10.70;2.85;;;14.80;93.00;;;;;;5034413;28;20041;-72
2022/07/30 03:33:00;;;;;;;7.53;2.58;;;14.80;93.10;;;;;;5034144;28;20113;-73
2022/07/30 03:35:30;;;;;;;7.03;2.40;;;14.80;93.20;;;;;;5032753;28;20052;-72
2022/07/30 03:38:00;;;;;;;10.88;2.80;;;14.80;93.30;;;;;;5034639;28;20460;-72
2022/07/30 03:40:28;;;;;;;7.65;2.60;;;14.80;93.40;;;;;;5033976;28;20049;-72
2022/07/30 03:42:56;;;;;;;6.03;2.35;;;14.70;93.50;;;;;;5032891;28;20038;-71
2022/07/30 03:45:25;;;;;;;11.65;2.90;;;14.70;93.70;;;;;;5034221;28;20041;-72
2022/07/30 03:48:00;;;;;;;10.18;2.90;;;14.70;93.80;;;;;;5032791;28;20037;-73
2022/07/30 03:50:28;;;;;;;;;;;14.60;94.00;;;;;;5034640;28;20060;-71
2022/07/30 03:52:55;;;;;;;;;;;14.60;94.60;;;;;;5017568;28;19921;-72
2022/07/30 03:55:24;;;;;;;8.10;3.00;;;14.30;94.70;;;;;;5033062;28;19928;-71
2022/07/30 03:58:11;;;;;;;;;;;14.50;94.20;;;;;;5034841;28;20056;-73
2022/07/30 04:00:40;;;;;;;12.63;3.70;;;14.50;95.00;;;;;;5032451;28;19921;-72
2022/07/30 04:03:09;;;;;;;7.72;3.45;;;14.50;94.40;;;;;;5034140;28;20072;-71
2022/07/30 04:05:49;;;;;;;14.30;4.85;;;14.40;94.50;;;;;;5033932;28;20052;-72
2022/07/30 04:08:16;;;;;;;10.48;5.43;;;14.40;94.70;;;;;;5034459;28;20479;-72
2022/07/30 04:10:45;;;;;;;12.85;5.25;;;14.40;95.00;;;;;;5037743;28;20464;-72
2022/07/30 04:13:31;;;;;;;14.70;5.28;;;14.30;95.10;;;;;;5038922;28;20056;-72
2022/07/30 04:16:09;;;;;;;9.25;5.10;;;14.30;95.30;;;;;;5036526;28;20045;-72
2022/07/30 04:19:00;;;;;;;14.00;7.32;;;14.30;95.50;;;;;;5037874;28;20376;-73
2022/07/30 04:21:30;;;;;;;14.68;6.57;;;14.30;95.60;;;;;;5036388;28;20068;-73
2022/07/30 04:24:00;;;;;;;16.05;7.53;;;14.30;95.70;;;;;;5037864;28;20372;-74
2022/07/30 04:26:35;;;;;;;16.40;8.07;;;14.30;96.00;;;;;;5021319;28;20387;-72
2022/07/30 04:29:06;;;;;;;13.52;8.25;;;14.30;96.40;;;;;;5036486;28;20049;-73
2022/07/30 04:31:36;;;;;;;17.25;8.90;;;14.30;96.40;;;;;;5037678;28;20033;-73
2022/07/30 04:34:34;;;;;;;18.70;8.60;;;14.30;96.40;;;;;;5033279;28;20049;-73
2022/07/30 04:37:06;;;;;;;19.25;9.40;;;14.30;96.60;;;;;;5037698;28;20049;-73
2022/07/30 04:39:34;;;;;;;18.58;9.18;;;14.30;96.60;;;;;;5037964;28;20046;-72
2022/07/30 04:42:02;;;;;;;17.45;9.05;;;14.30;96.70;;;;;;5036970;28;20042;-72
2022/07/30 04:44:37;;;;;;;16.50;9.73;;;14.40;96.80;;;;;;5037197;28;20390;-71
2022/07/30 04:47:22;;;;;;;17.63;8.88;;;14.40;96.90;;;;;;5036242;28;20041;-71
2022/07/30 04:50:20;;;;;;;18.08;9.38;;;14.40;97.00;;;;;;5022498;28;20068;-71
2022/07/30 04:52:48;;;;;;;17.05;8.75;;;14.40;97.20;;;;;;5036843;28;20065;-73
2022/07/30 04:55:23;;;;;;;15.80;8.63;;;14.50;97.20;;;;;;5036053;28;20049;-72
2022/07/30 04:57:52;;;;;;;16.90;9.10;;;14.60;97.40;;;;;;5037133;28;20124;-73
2022/07/30 05:00:20;;;;;;;17.25;8.20;;;14.60;97.10;;;;;;5037970;28;20045;-73
2022/07/30 05:02:52;;;;;;;16.75;8.18;;;14.70;97.20;;;;;;5035890;28;20113;-73
2022/07/30 05:05:23;;;;;;;14.15;7.45;;;14.80;97.10;;;;;;5037241;28;20042;-72
2022/07/30 05:07:53;;;;;;;13.23;7.35;;;14.90;97.00;;;;;;5035631;28;20049;-71
2022/07/30 05:10:21;;;;;;;14.30;7.00;;;15.10;96.90;;;;;;5036605;28;20045;-72
2022/07/30 05:12:48;;;;;;;15.43;7.05;;;15.20;96.60;;;;;;5036588;28;20049;-72
2022/07/30 05:15:20;;;;;;;13.82;7.45;;;15.30;96.50;;;;;;5035601;28;20052;-72
2022/07/30 05:17:49;;;;;;;15.05;7.80;;;15.30;96.30;;;;;;5019981;28;20419;-72
2022/07/30 05:20:17;;;;;;;15.07;7.50;;;15.30;96.20;;;;;;5035642;28;20046;-71
2022/07/30 05:23:04;;;;;;;16.50;7.72;;;15.40;96.20;;;;;;5037162;28;20057;-73
2022/07/30 05:25:33;;;;;;;14.98;8.98;;;15.30;96.20;;;;;;5036537;28;20052;-72
2022/07/30 05:28:27;;;;;;;14.23;8.68;;;15.30;96.30;;;;;;5035676;28;20065;-73
2022/07/30 05:30:58;;;;;;;21.55;9.07;;;15.40;96.30;;;;;;5036443;28;20056;-73
2022/07/30 05:33:28;;;;;;;20.17;10.05;;;15.30;96.30;;;;;;5036198;28;20064;-73
2022/07/30 05:36:10;;;;;;;18.35;9.40;;;15.40;96.40;;;;;;5035083;28;20060;-72
2022/07/30 05:38:39;;;;;;;19.52;10.82;;;15.40;96.40;;;;;;5036051;28;20045;-73
2022/07/30 05:41:30;;;;;;;20.67;11.85;;;15.50;96.40;;;;;;5007992;28;20076;-72
2022/07/30 05:44:18;;;;;;;21.13;12.48;;;15.60;96.40;;;;;;5037153;28;20377;-72
2022/07/30 05:46:51;;;;;;;22.35;12.35;;;15.70;96.40;;;;;;5035871;28;20050;-72
2022/07/30 05:49:18;;;;;;;19.98;12.40;;;15.90;96.40;;;;;;5034941;28;20054;-73
2022/07/30 05:51:46;;;;;;;19.92;11.93;;;16.00;96.30;;;;;;5035517;28;20060;-72
2022/07/30 05:54:17;;;;;;;24.33;12.85;;;16.20;96.20;;;;;;5034878;28;20297;-71
2022/07/30 05:57:04;;;;;;;22.77;12.13;;;16.40;95.90;;;;;;5036844;28;20037;-73
2022/07/30 05:59:33;;;;;;;25.80;12.60;;;16.60;95.70;;;;;;5036349;28;20052;-72
2022/07/30 06:02:07;;;;;;;21.40;11.68;;;16.80;95.50;;;;;;5034663;28;20042;-73
2022/07/30 06:05:07;;;;;;;21.20;11.93;;;17.00;95.20;;;;;;5014407;28;20057;-73
2022/07/30 06:07:35;;;;;;;18.73;11.95;;;17.10;94.90;;;;;;5034398;28;20393;-72
2022/07/30 06:10:05;;;;;;;20.55;12.18;;;17.30;94.80;;;;;;5035537;28;20037;-71
2022/07/30 06:12:32;;;;;;;23.23;12.60;;;17.30;94.70;;;;;;5036309;28;20464;-73
2022/07/30 06:15:01;;;;;;;21.70;11.85;;;17.40;94.70;;;;;;5034345;28;20037;-73
2022/07/30 06:17:33;;;;;;;17.90;12.25;;;17.40;94.60;;;;;;5035687;28;20468;-73
2022/07/30 06:20:18;;;;;;;23.45;13.38;;;17.50;94.60;;;;;;5035218;28;20053;-74
2022/07/30 06:23:18;;;;;;;23.85;12.82;;;17.50;94.50;;;;;;5035196;28;20124;-72
2022/07/30 06:25:59;;;;;;;23.33;12.07;;;17.60;94.40;;;;;;5035378;28;20075;-74
2022/07/30 06:28:26;;;;;;;25.05;12.15;;;17.70;94.30;;;;;;5034792;28;20050;-73
2022/07/30 06:31:12;;;;;;;19.58;11.30;;;17.70;94.20;;;;;;5034310;28;20056;-74
2022/07/30 06:33:40;;;;;;;18.63;11.07;;;17.80;94.00;;;;;;5018783;28;20494;-74
2022/07/30 06:36:08;;;;;;;18.98;11.10;;;17.90;93.80;;;;;;5033977;28;20060;-74
2022/07/30 06:39:01;;;;;;;21.30;11.00;;;18.00;93.70;;;;;;5035759;28;20045;-74
2022/07/30 06:42:01;;;;;;;21.02;10.00;;;18.20;93.40;;;;;;5034544;28;20037;-75
2022/07/30 06:44:47;;;;;;;17.02;8.73;;;18.30;93.10;;;;;;5035974;28;20049;-74
2022/07/30 06:47:27;;;;;;;17.65;8.30;;;18.50;92.90;;;;;;5033700;28;20483;-75
2022/07/30 06:49:56;;;;;;;13.98;7.07;;;18.70;92.40;;;;;;5035195;28;20045;-74
2022/07/30 06:52:26;;;;;;;15.73;7.60;;;18.80;91.90;;;;;;5018502;28;20049;-73
2022/07/30 06:54:54;;;;;;;14.45;6.90;;;19.00;91.40;;;;;;5033601;28;20045;-73
2022/07/30 06:57:38;;;;;;;16.00;6.50;;;19.10;91.00;;;;;;5018205;28;20076;-74
2022/07/30 07:00:29;;;;;;;18.55;7.68;;;19.30;90.80;;;;;;5035473;28;20053;-74
2022/07/30 07:03:01;;;;;;;15.20;7.22;;;19.50;90.70;;;;;;5016945;28;20046;-73
2022/07/30 07:05:35;;;;;;;19.88;7.60;;;19.50;90.50;;;;;;5034899;28;20499;-74
2022/07/30 07:08:04;;;;;;;16.08;7.13;;;19.60;90.30;;;;;;5017246;28;20041;-74
2022/07/30 07:10:36;;;;;;;18.85;8.00;;;19.80;90.10;;;;;;5033888;28;20373;-72
2022/07/30 07:13:33;;;;;;;15.18;6.90;;;19.90;89.80;;;;;;5026243;28;20479;-75
2022/07/30 07:16:05;;;;;;;20.45;6.43;;;20.00;89.10;;;;;;5033146;28;20041;-74
2022/07/30 07:18:35;;;;;;;11.40;5.18;;;20.10;88.50;;;;;;5033940;28;20056;-74
2022/07/30 07:21:07;;;;;;;13.93;4.22;;;20.10;88.10;;;;;;5032888;28;20049;-73
2022/07/30 07:23:36;;;;;;;11.70;4.45;;;20.20;86.30;;;;;;5033772;28;20060;-73
2022/07/30 07:26:16;;;;;;;10.27;3.75;;;20.30;85.50;;;;;;5019038;28;20369;-75
2022/07/30 07:28:46;;;;;;;12.25;3.80;;;20.30;83.80;;;;;;5032604;28;20049;-74
2022/07/30 07:31:14;;;;;;;16.50;4.93;;;20.40;83.40;;;;;;5033459;28;20460;-76
2022/07/30 07:34:01;;;;;;;9.55;3.25;;;20.40;82.60;;;;;;5032850;28;20049;-75
2022/07/30 07:36:29;;;;;;;11.25;3.03;;;20.40;82.20;;;;;;5033772;28;20461;-76
2022/07/30 07:38:58;;;;;;;11.65;3.03;;;20.40;81.20;;;;;;5033599;28;20056;-75
2022/07/30 07:41:26;;;;;;;;;;;20.40;81.00;;;;;;5032956;28;20042;-75
2022/07/30 07:43:53;;;;;;;11.77;3.33;;;20.50;79.70;;;;;;5016954;28;20360;-74
2022/07/30 07:46:32;;;;;;;12.98;2.95;;;20.50;80.60;;;;;;5033763;28;20057;-74
2022/07/30 07:49:02;;;;;;;8.80;2.67;;;20.60;80.40;;;;;;5032481;28;20050;-73
2022/07/30 07:51:42;;;;;;;10.18;2.97;;;20.70;79.10;;;;;;5033387;28;20057;-75
2022/07/30 07:54:18;;;;;;;14.27;2.30;;;20.80;78.40;;;;;;5032672;28;20323;-74
2022/07/30 07:56:51;;;;;;;7.53;1.83;;;21.00;77.10;;;;;;5033210;28;20053;-75
2022/07/30 07:59:25;;;;;;;8.88;2.20;;;21.10;75.30;;;;;;5033541;28;20049;-77
2022/07/30 08:02:12;;;;;;;7.93;2.42;;;21.30;73.70;;;;;;5032293;28;20049;-76
2022/07/30 08:04:57;;;;;;;5.68;1.90;;;21.50;72.20;;;;;;5033450;28;20046;-75
2022/07/30 08:07:31;;;;;;;9.35;1.80;;;21.60;71.90;;;;;;5033245;28;20042;-73
2022/07/30 08:10:17;;;;;;;6.57;2.17;;;21.70;71.10;;;;;;5031522;28;20042;-72
2022/07/30 08:13:05;;;;;;;7.20;1.75;;;21.90;70.40;;;;;;5020901;28;20068;-72
2022/07/30 08:16:13;;;;;;;10.70;1.95;;;22.00;70.30;;;;;;5052768;28;20040;-73
2022/07/30 08:18:59;;;;;;;;;;;22.20;70.20;;;;;;5054371;28;20062;-72
2022/07/30 08:21:31;;;;;;;5.47;1.73;;;22.30;67.90;;;;;;5052343;28;19920;-71
2022/07/30 08:23:59;;;;;;;8.20;1.70;;;22.50;70.00;;;;;;5053854;28;20048;-77
2022/07/30 08:26:27;;;;;;;6.15;1.50;;;22.50;69.00;;;;;;5053093;28;20037;-75
2022/07/30 08:28:54;;;;;;;7.47;1.75;;;22.60;68.50;;;;;;5053238;28;20037;-76
2022/07/30 08:31:22;;;;;;;9.13;1.90;;;22.70;68.50;;;;;;5053255;28;20063;-75
2022/07/30 08:33:50;;;;;;;5.22;1.70;;;22.70;68.00;;;;;;5037020;28;20356;-75
2022/07/30 08:36:18;;;;;;;6.15;1.70;;;22.90;68.00;;;;;;5052333;28;20466;-76
2022/07/30 08:38:53;;;;;;;8.50;2.00;;;22.90;68.10;;;;;;5053572;28;20045;-75
2022/07/30 08:41:23;;;;;;;6.63;1.90;;;23.00;67.90;;;;;;5052224;28;20041;-74
2022/07/30 08:43:53;;;;;;;10.23;2.00;;;23.10;67.70;;;;;;5054155;28;20455;-75
2022/07/30 08:46:24;;;;;;;9.57;2.28;;;23.10;67.70;;;;;;5054653;28;20045;-75
2022/07/30 08:48:59;;;;;;;5.63;1.88;;;23.20;67.90;;;;;;5052416;28;20041;-75
2022/07/30 08:51:37;;;;;;;7.90;2.20;;;23.20;67.80;;;;;;5053301;28;20055;-75
2022/07/30 08:54:34;;;;;;;8.52;1.88;;;23.20;67.80;;;;;;5050461;28;20297;-69
2022/07/30 08:57:03;;;;;;;8.02;1.95;;;23.30;67.50;;;;;;5040651;28;20053;-76
2022/07/30 08:59:34;;;;;;;6.65;1.85;;;23.40;67.40;;;;;;5057152;28;20513;-74
2022/07/30 09:02:22;;;;;;;10.35;1.90;;;23.50;67.10;;;;;;5039128;28;20049;-76
2022/07/30 09:05:13;;;;;;;9.60;1.90;;;23.60;67.00;;;;;;5057579;28;20049;-75
2022/07/30 09:07:41;;;;;;;8.25;1.80;;;23.70;66.90;;;;;;5056471;28;20479;-76
2022/07/30 09:10:16;;;;;;;6.57;1.70;;;23.90;67.00;;;;;;5056872;28;20052;-77
2022/07/30 09:12:45;;;;;;;7.50;1.80;;;24.00;66.90;;;;;;5073194;28;20383;-75
2022/07/30 09:15:15;;;;;;;8.65;1.95;;;24.10;66.60;;;;;;5055395;28;20055;-76
2022/07/30 09:17:52;;;;;;;7.68;1.90;;;24.20;66.50;;;;;;5057009;28;20048;-76
2022/07/30 09:20:27;;;;;;;8.25;2.10;;;24.20;66.40;;;;;;5056493;28;20352;-76
2022/07/30 09:23:06;;;;;;;5.25;1.90;;;24.30;66.10;;;;;;5055412;28;20045;-76
2022/07/30 09:25:49;;;;;;;7.03;1.80;;;24.20;66.70;;;;;;5056417;28;20044;-75
2022/07/30 09:28:36;;;;;;;7.55;2.03;;;24.40;67.20;;;;;;5055408;28;20045;-75
2022/07/30 09:31:20;;;;;;;8.18;1.90;;;24.50;67.10;;;;;;5056472;28;20048;-75
2022/07/30 09:34:29;;;;;;;10.25;2.10;;;24.70;67.10;;;;;;5055995;28;20060;-75
2022/07/30 09:37:07;;;;;;;6.07;2.05;;;24.90;66.20;;;;;;5057471;28;20052;-73
2022/07/30 09:39:53;;;;;;;11.70;2.00;;;25.00;66.80;;;;;;5056974;28;20045;-75
2022/07/30 09:42:44;;;;;;;8.82;2.00;;;25.10;67.00;;;;;;5055060;28;20056;-77
2022/07/30 09:45:14;;;;;;;8.93;2.30;;;25.20;67.10;;;;;;5055439;28;20045;-74
2022/07/30 09:47:47;;;;;;;8.95;2.28;;;25.30;67.30;;;;;;5054680;28;20041;-75
2022/07/30 09:50:23;;;;;;;9.65;1.92;;;25.50;67.10;;;;;;5055768;28;20489;-76
2022/07/30 09:53:08;;;;;;;10.82;2.28;;;25.50;67.10;;;;;;5055433;28;20071;-75
2022/07/30 09:55:42;;;;;;;12.88;2.10;;;25.60;66.80;;;;;;5054567;28;20060;-76
2022/07/30 09:58:11;;;;;;;7.45;1.92;;;25.60;66.90;;;;;;5055582;28;20049;-76
2022/07/30 10:00:58;;;;;;;8.05;1.88;;;25.70;66.90;;;;;;5054366;28;20045;-78
2022/07/30 10:03:49;;;;;;;6.38;2.00;;;25.70;66.30;;;;;;5055935;28;20060;-76
2022/07/30 10:06:36;;;;;;;9.60;2.35;;;25.70;66.50;;;;;;5056017;28;20052;-78
2022/07/30 10:09:30;;;;;;;8.48;2.33;;;25.70;66.90;;;;;;5054454;28;20079;-75
2022/07/30 10:12:03;;;;;;;10.70;2.67;;;25.60;66.90;;;;;;5055241;28;20037;-79
2022/07/30 10:14:37;;;;;;;7.68;2.33;;;25.60;66.70;;;;;;5053923;28;20056;-75
2022/07/30 10:17:12;;;;;;;9.82;2.17;;;25.60;67.10;;;;;;5038560;28;20463;-75
2022/07/30 10:19:45;;;;;;;11.45;2.00;;;25.60;67.30;;;;;;5055044;28;20032;-75
2022/07/30 10:22:34;;;;;;;7.35;2.22;;;25.80;67.40;;;;;;5054664;28;20045;-78
2022/07/30 10:25:23;;;;;;;7.35;2.30;;;25.90;66.80;;;;;;5055953;28;20455;-76
2022/07/30 10:28:24;;;;;;;9.40;2.25;;;26.00;66.70;;;;;;5041447;28;20072;-77
2022/07/30 10:30:52;;;;;;;12.50;2.30;;;26.10;66.80;;;;;;5055713;28;20040;-77
2022/07/30 10:33:27;;;;;;;10.70;2.30;;;26.30;66.90;;;;;;5055535;28;20045;-75
2022/07/30 10:36:02;;;;;;;7.65;1.95;;;26.50;66.50;;;;;;5053436;28;20044;-78
2022/07/30 10:38:36;;;;;;;10.15;2.20;;;26.70;65.80;;;;;;5055424;28;20045;-75
2022/07/30 10:41:43;;;;;;;9.48;2.15;;;26.60;65.50;;;;;;5053572;28;20045;-79
2022/07/30 10:44:22;;;;;;;;;;;26.60;65.90;;;;;;5055870;28;20049;-78
2022/07/30 10:47:24;;;;;;;10.82;2.10;;;26.60;65.30;;;;;;5054070;28;20251;-77
2022/07/30 10:50:15;;;;;;;10.05;2.10;;;26.70;65.60;;;;;;5055402;28;20482;-74
2022/07/30 10:52:49;;;;;;;9.40;2.20;;;26.70;65.50;;;;;;5041583;28;20057;-75
2022/07/30 10:55:21;;;;;;;7.80;2.17;;;26.60;65.90;;;;;;5000589;28;20060;-75
2022/07/30 10:58:12;;;;;;;8.05;2.30;;;26.50;66.20;;;;;;5020200;28;20042;-73
2022/07/30 11:00:50;;;;;;;9.45;1.98;;;26.40;66.10;;;;;;5016833;28;20052;-77
2022/07/30 11:03:22;;;;;;;11.52;2.35;;;26.40;66.70;;;;;;5017941;28;20045;-78
2022/07/30 11:06:16;;;;;;;9.40;2.15;;;26.30;66.60;;;;;;5018122;28;20041;-75
2022/07/30 11:08:51;;;;;;;7.53;2.05;;;26.40;67.20;;;;;;5033845;28;20491;-73
2022/07/30 11:11:26;;;;;;;9.20;2.97;;;26.50;66.50;;;;;;5017616;28;20045;-78
2022/07/30 11:14:14;;;;;;;8.23;2.10;;;26.70;66.30;;;;;;5033323;28;20384;-79
2022/07/30 11:16:45;;;;;;;10.82;2.08;;;26.90;65.50;;;;;;5034831;28;20049;-79
2022/07/30 11:19:21;;;;;;;9.07;1.80;;;27.00;64.90;;;;;;5000702;28;20063;-77
2022/07/30 11:22:37;;;;;;;7.57;1.95;;;26.90;64.00;;;;;;5033542;28;20033;-77
2022/07/30 11:25:08;;;;;;;8.32;2.22;;;27.20;63.60;;;;;;5017662;28;20049;-75
2022/07/30 11:27:44;;;;;;;6.07;1.80;;;27.20;64.10;;;;;;5033497;28;20056;-75
2022/07/30 11:30:15;;;;;;;5.80;1.90;;;27.40;64.50;;;;;;5034891;28;20364;-74
2022/07/30 11:33:10;;;;;;;8.93;1.67;;;27.70;64.10;;;;;;5034610;28;20045;-74
2022/07/30 11:35:39;;;;;;;4.50;1.63;;;28.00;62.30;;;;;;5004523;28;20068;-73
2022/07/30 11:38:14;;;;;;;6.53;2.20;;;28.20;63.30;;;;;;5017323;28;20056;-75
2022/07/30 11:40:48;;;;;;;6.60;2.00;;;28.30;62.10;;;;;;5033319;28;20045;-80
2022/07/30 11:43:34;;;;;;;6.00;1.92;;;28.30;60.90;;;;;;5000747;28;20049;-77
2022/07/30 11:46:16;;;;;;;8.10;2.20;;;28.20;60.90;;;;;;5017728;28;20037;-78
2022/07/30 11:49:07;;;;;;;7.25;1.90;;;28.30;61.10;;;;;;5018002;28;20049;-77
2022/07/30 11:51:43;;;;;;;8.68;1.92;;;28.30;61.20;;;;;;5005953;28;20060;-77
2022/07/30 11:54:11;;;;;;;5.60;1.63;;;28.10;60.90;;;;;;5053374;28;20060;-75
2022/07/30 11:56:54;;;;;;;5.88;2.05;;;28.10;61.80;;;;;;5054089;28;20366;-76
2022/07/30 11:59:22;;;;;;;6.72;1.80;;;28.20;61.90;;;;;;5053523;28;20053;-74
2022/07/30 12:01:55;;;;;;;;;;;28.30;61.90;;;;;;5053472;28;20467;-74
2022/07/30 12:04:23;;;;;;;5.75;1.80;;;28.30;61.00;;;;;;5054222;28;20370;-77
2022/07/30 12:06:51;;;;;;;6.82;1.42;;;28.40;61.80;;;;;;5053331;28;20051;-75
2022/07/30 12:09:22;;;;;;;6.65;1.98;;;28.60;61.60;;;;;;5052935;28;20037;-72
2022/07/30 12:11:54;;;;;;;6.63;1.88;;;28.60;61.10;;;;;;5036837;28;20471;-74
2022/07/30 12:14:22;;;;;;;11.88;3.95;;;28.60;61.00;;;;;;5052984;28;20045;-77
2022/07/30 12:16:53;;;;;;;;;;;28.60;61.00;;;;;;5054561;28;20360;-74
2022/07/30 12:19:21;;;;;;;4.57;1.70;;;28.60;60.40;;;;;;5070024;28;19920;-74
2022/07/30 12:21:48;;;;;;;5.10;1.63;;;28.50;61.20;;;;;;5053030;28;20060;-75
2022/07/30 12:24:31;;;;;;;5.78;1.80;;;28.40;61.50;;;;;;5053721;28;20049;-75
2022/07/30 12:27:05;;;;;;;5.57;1.65;;;28.10;61.50;;;;;;5053975;28;20489;-77
2022/07/30 12:29:40;;;;;;;8.35;2.38;;;27.80;61.90;;;;;;5055416;28;20037;-76
2022/07/30 12:32:08;;;;;;;6.57;2.28;;;27.60;62.20;;;;;;5058072;28;20483;-76
2022/07/30 12:34:36;;;;;;;6.55;2.33;;;27.30;62.30;;;;;;5056833;28;20056;-75
2022/07/30 12:37:08;;;;;;;6.55;1.77;;;27.20;62.70;;;;;;5057821;28;20055;-77
2022/07/30 12:39:40;;;;;;;4.85;1.85;;;27.10;62.60;;;;;;5056927;28;20057;-77
2022/07/30 12:42:19;;;;;;;8.77;1.63;;;27.10;62.80;;;;;;5056775;28;20061;-75
2022/07/30 12:44:52;;;;;;;7.47;2.10;;;26.80;61.90;;;;;;5056751;28;20060;-76
2022/07/30 12:47:27;;;;;;;6.10;2.20;;;26.80;62.50;;;;;;5056814;28;20044;-77
2022/07/30 12:49:58;;;;;;;7.10;1.73;;;27.00;62.60;;;;;;5056757;28;20068;-77
2022/07/30 12:52:33;;;;;;;5.90;1.35;;;27.30;62.50;;;;;;5056430;28;20471;-76
2022/07/30 12:55:08;;;;;;;5.60;1.60;;;27.70;61.80;;;;;;5039204;28;20049;-75
2022/07/30 12:57:56;;;;;;;5.68;1.48;;;28.00;61.40;;;;;;5056628;28;20056;-77
2022/07/30 13:00:27;;;;;;;9.02;1.70;;;28.30;60.60;;;;;;5057524;28;20045;-76
2022/07/30 13:02:55;;;;;;;7.00;1.40;;;28.60;60.80;;;;;;5055414;28;20059;-76
2022/07/30 13:05:46;;;;;;;5.70;1.50;;;29.00;60.20;;;;;;5057446;28;20045;-74
2022/07/30 13:08:13;;;;;;;8.13;1.70;;;29.30;58.90;;;;;;5056083;28;20056;-75
2022/07/30 13:11:01;;;;;;;6.07;1.50;;;29.70;59.70;;;;;;5056227;28;20041;-73
2022/07/30 13:13:31;;;;;;;7.65;1.48;;;29.90;58.40;;;;;;5056180;28;20059;-77
2022/07/30 13:16:04;;;;;;;4.05;1.45;;;30.10;59.00;;;;;;5056025;28;20502;-79
2022/07/30 13:18:34;;;;;;;6.57;1.67;;;30.20;58.00;;;;;;5056162;28;20049;-77
2022/07/30 13:21:08;;;;;;;7.50;1.75;;;30.40;58.60;;;;;;5055850;28;20045;-78
2022/07/30 13:23:37;;;;;;;7.10;2.70;;;30.40;58.10;;;;;;5056609;28;20368;-79
2022/07/30 13:26:07;;;;;;;6.47;1.75;;;30.40;57.90;;;;;;5055951;28;20044;-78
2022/07/30 13:28:35;;;;;;;7.28;1.67;;;30.30;58.10;;;;;;5054951;28;20044;-79